Time;durP1;ratioP1;P1;durP2;ratioP2;P2;SDS_P1;SDS_P2;PMS_P1;PMS_P2;Temp;Humidity;BMP_temperature;BMP_pressure;BME280_temperature;BME280_humidity;BME280_pressure;Samples;Min_cycle;Max_cycle;Signal;HPM_P1;HPM_P2
2023/05/05 00:00:51;;;;;;;;;;;;;;;;;;5050999;28;19970;-65
2023/05/05 00:03:19;;;;;;;;;;;;;;;;;;5046995;28;20307;-65
2023/05/05 00:05:48;;;;;;;;;;;;;;;;;;5047698;28;20908;-65
2023/05/05 00:08:15;;;;;;;;;;;;;;;;;;5047952;28;19947;-65
2023/05/05 00:10:42;;;;;;;;;;;;;;;;;;5047652;28;19952;-65
2023/05/05 00:13:09;;;;;;;;;;;;;;;;;;5044328;28;19937;-65
2023/05/05 00:15:36;;;;;;;;;;;;;;;;;;5049864;28;19952;-65
2023/05/05 00:18:03;;;;;;;;;;;;;;;;;;5066198;28;19960;-65
2023/05/05 00:20:30;;;;;;;;;;;;;;;;;;5051137;28;19986;-65
2023/05/05 00:22:57;;;;;;;;;;;;;;;;;;5044386;28;19935;-65
2023/05/05 00:25:24;;;;;;;;;;;;;;;;;;5050073;28;19958;-65
2023/05/05 00:27:51;;;;;;;;;;;;;;;;;;5047309;28;19972;-65
2023/05/05 00:30:18;;;;;;;;;;;;;;;;;;5055122;28;20077;-65
2023/05/05 00:32:46;;;;;;;;;;;;;;;;;;5048972;28;19925;-65
2023/05/05 00:35:13;;;;;;;;;;;;;;;;;;5049612;28;20008;-64
2023/05/05 00:37:40;;;;;;;;;;;;;;;;;;5050036;28;19928;-65
2023/05/05 00:40:07;;;;;;;;;;;;;;;;;;5051178;28;19925;-65
2023/05/05 00:42:34;;;;;;;;;;;;;;;;;;5048273;28;19933;-66
2023/05/05 00:45:01;;;;;;;;;;;;;;;;;;5050523;28;19925;-66
2023/05/05 00:47:28;;;;;;;;;;;;;;;;;;5050045;28;19929;-66
2023/05/05 00:49:55;;;;;;;;;;;;;;;;;;5047413;28;20311;-65
2023/05/05 00:52:22;;;;;;;;;;;;;;;;;;5046249;28;19969;-66
2023/05/05 00:54:49;;;;;;;;;;;;;;;;;;5049987;28;20002;-65
2023/05/05 00:57:16;;;;;;;;;;;;;;;;;;5050342;28;19978;-66
2023/05/05 00:59:43;;;;;;;;;;;;;;;;;;5053201;28;19925;-65
2023/05/05 01:02:10;;;;;;;;;;;;;;;;;;5053478;28;19956;-65
2023/05/05 01:04:38;;;;;;;;;;;;;;;;;;5051035;28;19968;-65
2023/05/05 01:07:05;;;;;;;;;;;;;;;;;;5050206;28;20326;-65
2023/05/05 01:09:32;;;;;;;;;;;;;;;;;;5052627;28;19964;-65
2023/05/05 01:11:59;;;;;;;;;;;;;;;;;;5051464;28;19968;-66
2023/05/05 01:14:26;;;;;;;;;;;;;;;;;;5053016;28;19928;-65
2023/05/05 01:16:53;;;;;;;;;;;;;;;;;;5052503;28;19929;-65
2023/05/05 01:19:20;;;;;;;;;;;;;;;;;;5054596;28;19978;-64
2023/05/05 01:21:47;;;;;;;;;;;;;;;;;;5052097;28;19960;-65
2023/05/05 01:24:14;;;;;;;;;;;;;;;;;;5053918;28;19932;-65
2023/05/05 01:26:41;;;;;;;;;;;;;;;;;;5053908;28;19980;-65
2023/05/05 01:29:08;;;;;;;;;;;;;;;;;;5054166;28;19929;-65
2023/05/05 01:31:35;;;;;;;;;;;;;;;;;;5053393;28;19970;-65
2023/05/05 01:34:02;;;;;;;;;;;;;;;;;;5054779;28;19965;-66
2023/05/05 01:36:30;;;;;;;;;;;;;;;;;;5053841;28;19925;-65
2023/05/05 01:38:57;;;;;;;;;;;;;;;;;;5055537;28;19925;-64
2023/05/05 01:41:24;;;;;;;;;;;;;;;;;;5052699;28;19925;-64
2023/05/05 01:43:51;;;;;;;;;;;;;;;;;;5053890;28;19925;-65
2023/05/05 01:46:18;;;;;;;;;;;;;;;;;;5051957;28;19952;-64
2023/05/05 01:48:45;;;;;;;;;;;;;;;;;;5053636;28;19925;-64
2023/05/05 01:51:12;;;;;;;;;;;;;;;;;;5053895;28;20428;-65
2023/05/05 01:53:40;;;;;;;;;;;;;;;;;;5053853;28;19929;-65
2023/05/05 01:56:07;;;;;;;;;;;;;;;;;;5053711;28;19932;-65
2023/05/05 01:58:34;;;;;;;;;;;;;;;;;;5054162;28;19978;-65
2023/05/05 02:01:01;;;;;;;;;;;;;;;;;;5053325;28;19932;-65
2023/05/05 02:03:28;;;;;;;;;;;;;;;;;;5051952;28;19975;-65
2023/05/05 02:05:55;;;;;;;;;;;;;;;;;;5052934;28;19924;-65
2023/05/05 02:08:22;;;;;;;;;;;;;;;;;;5053753;28;20395;-65
2023/05/05 02:10:49;;;;;;;;;;;;;;;;;;5052505;28;19978;-65
2023/05/05 02:13:16;;;;;;;;;;;;;;;;;;5053366;28;20363;-66
2023/05/05 02:15:43;;;;;;;;;;;;;;;;;;5053413;28;19961;-65
2023/05/05 02:18:10;;;;;;;;;;;;;;;;;;5060570;28;19947;-66
2023/05/05 02:20:37;;;;;;;;;;;;;;;;;;5056139;28;20017;-65
2023/05/05 02:23:06;;;;;;;;;;;;;;;;;;5051959;28;19975;-65
2023/05/05 02:25:33;;;;;;;;;;;;;;;;;;5045611;28;19991;-65
2023/05/05 02:28:00;;;;;;;;;;;;;;;;;;5051243;28;19925;-65
2023/05/05 02:30:27;;;;;;;;;;;;;;;;;;5053784;28;20367;-65
2023/05/05 02:32:54;;;;;;;;;;;;;;;;;;5050071;28;19968;-65
2023/05/05 02:35:21;;;;;;;;;;;;;;;;;;5051716;28;19968;-65
2023/05/05 02:37:48;;;;;;;;;;;;;;;;;;5051280;28;19928;-66
2023/05/05 02:40:16;;;;;;;;;;;;;;;;;;5051321;28;19971;-65
2023/05/05 02:42:43;;;;;;;;;;;;;;;;;;5050634;28;19931;-65
2023/05/05 02:45:10;;;;;;;;;;;;;;;;;;5051901;28;19932;-65
2023/05/05 02:47:37;;;;;;;;;;;;;;;;;;5053404;28;20016;-65
2023/05/05 02:50:04;;;;;;;;;;;;;;;;;;5052431;28;20379;-65
2023/05/05 02:52:31;;;;;;;;;;;;;;;;;;5050848;28;19951;-65
2023/05/05 02:54:58;;;;;;;;;;;;;;;;;;5052259;28;20598;-65
2023/05/05 02:57:25;;;;;;;;;;;;;;;;;;5050586;28;19982;-65
2023/05/05 02:59:52;;;;;;;;;;;;;;;;;;5047607;28;19979;-65
2023/05/05 03:02:19;;;;;;;;;;;;;;;;;;5050958;28;20465;-65
2023/05/05 03:04:46;;;;;;;;;;;;;;;;;;5053659;28;19978;-66
2023/05/05 03:07:14;;;;;;;;;;;;;;;;;;5049039;28;19968;-65
2023/05/05 03:09:41;;;;;;;;;;;;;;;;;;5040666;28;19975;-65
2023/05/05 03:12:08;;;;;;;;;;;;;;;;;;5050828;28;20300;-65
2023/05/05 03:14:36;;;;;;;;;;;;;;;;;;5051271;28;19933;-67
2023/05/05 03:17:03;;;;;;;;;;;;;;;;;;5044110;28;19924;-65
2023/05/05 03:19:30;;;;;;;;;;;;;;;;;;5052264;28;19931;-65
2023/05/05 03:21:58;;;;;;;;;;;;;;;;;;5045609;28;19924;-65
2023/05/05 03:24:25;;;;;;;;;;;;;;;;;;5048440;28;19928;-65
2023/05/05 03:26:53;;;;;;;;;;;;;;;;;;5052262;28;19931;-64
2023/05/05 03:29:20;;;;;;;;;;;;;;;;;;5051168;28;20387;-65
2023/05/05 03:31:47;;;;;;;;;;;;;;;;;;5049445;28;19925;-64
2023/05/05 03:34:14;;;;;;;;;;;;;;;;;;5045847;28;19925;-63
2023/05/05 03:36:41;;;;;;;;;;;;;;;;;;5051958;28;20067;-65
2023/05/05 03:39:09;;;;;;;;;;;;;;;;;;5050208;28;19928;-65
2023/05/05 03:41:36;;;;;;;;;;;;;;;;;;5051697;28;19933;-65
2023/05/05 03:44:03;;;;;;;;;;;;;;;;;;5050497;28;19964;-65
2023/05/05 03:46:30;;;;;;;;;;;;;;;;;;5050405;28;19925;-67
2023/05/05 03:48:57;;;;;;;;;;;;;;;;;;5051555;28;19925;-65
2023/05/05 03:51:24;;;;;;;;;;;;;;;;;;5050028;28;19925;-64
2023/05/05 03:53:51;;;;;;;;;;;;;;;;;;5050757;28;19925;-64
2023/05/05 03:56:18;;;;;;;;;;;;;;;;;;5047565;28;19968;-64
2023/05/05 03:58:45;;;;;;;;;;;;;;;;;;5049962;28;19925;-64
2023/05/05 04:01:13;;;;;;;;;;;;;;;;;;5050007;28;19929;-64
2023/05/05 04:03:40;;;;;;;;;;;;;;;;;;5050569;28;19929;-64
2023/05/05 04:06:07;;;;;;;;;;;;;;;;;;5050661;28;19986;-64
2023/05/05 04:08:34;;;;;;;;;;;;;;;;;;5051835;28;20261;-64
2023/05/05 04:11:02;;;;;;;;;;;;;;;;;;5048954;28;19929;-64
2023/05/05 04:13:29;;;;;;;;;;;;;;;;;;5053567;28;20538;-64
2023/05/05 04:15:56;;;;;;;;;;;;;;;;;;5048562;28;19925;-63
2023/05/05 04:18:23;;;;;;;;;;;;;;;;;;5051725;28;19925;-65
2023/05/05 04:20:50;;;;;;;;;;;;;;;;;;5051108;28;19971;-65
2023/05/05 04:23:17;;;;;;;;;;;;;;;;;;5049013;28;19925;-65
2023/05/05 04:25:44;;;;;;;;;;;;;;;;;;5048960;28;20002;-65
2023/05/05 04:28:11;;;;;;;;;;;;;;;;;;5048360;28;19928;-65
2023/05/05 04:30:38;;;;;;;;;;;;;;;;;;5049625;28;19925;-66
2023/05/05 04:33:05;;;;;;;;;;;;;;;;;;5048006;28;19952;-65
2023/05/05 04:35:32;;;;;;;;;;;;;;;;;;5054341;28;20323;-65
2023/05/05 04:37:59;;;;;;;;;;;;;;;;;;5054460;28;19994;-65
2023/05/05 04:40:26;;;;;;;;;;;;;;;;;;5054647;28;20299;-66
2023/05/05 04:42:54;;;;;;;;;;;;;;;;;;5053777;28;21920;-65
2023/05/05 04:45:21;;;;;;;;;;;;;;;;;;5054232;28;19932;-65
2023/05/05 04:47:48;;;;;;;;;;;;;;;;;;5053019;28;19929;-65
2023/05/05 04:50:15;;;;;;;;;;;;;;;;;;5055508;28;19933;-64
2023/05/05 04:52:42;;;;;;;;;;;;;;;;;;5052599;28;19924;-65
2023/05/05 04:55:09;;;;;;;;;;;;;;;;;;5053475;28;19978;-65
2023/05/05 04:57:36;;;;;;;;;;;;;;;;;;5054431;28;19925;-64
2023/05/05 05:00:04;;;;;;;;;;;;;;;;;;5045797;28;19937;-64
2023/05/05 05:02:31;;;;;;;;;;;;;;;;;;5054513;28;19967;-65
2023/05/05 05:04:58;;;;;;;;;;;;;;;;;;5054950;28;20042;-65
2023/05/05 05:07:26;;;;;;;;;;;;;;;;;;5054689;28;19931;-65
2023/05/05 05:09:53;;;;;;;;;;;;;;;;;;5045672;28;20014;-65
2023/05/05 05:12:20;;;;;;;;;;;;;;;;;;5054005;28;19924;-66
2023/05/05 05:14:47;;;;;;;;;;;;;;;;;;5055001;28;19924;-65
2023/05/05 05:17:14;;;;;;;;;;;;;;;;;;5052506;28;19994;-65
2023/05/05 05:19:41;;;;;;;;;;;;;;;;;;5056844;28;19935;-65
2023/05/05 05:22:08;;;;;;;;;;;;;;;;;;5052287;28;19925;-65
2023/05/05 05:24:35;;;;;;;;;;;;;;;;;;5054964;28;19948;-65
2023/05/05 05:27:06;;;;;;;;;;;;;;;;;;5054604;28;20006;-65
2023/05/05 05:29:33;;;;;;;;;;;;;;;;;;5052987;28;19929;-65
2023/05/05 05:32:00;;;;;;;;;;;;;;;;;;5056180;28;19937;-66
2023/05/05 05:34:27;;;;;;;;;;;;;;;;;;5043776;28;19932;-66
2023/05/05 05:36:54;;;;;;;;;;;;;;;;;;5054610;28;20339;-66
2023/05/05 05:39:22;;;;;;;;;;;;;;;;;;5054449;28;19971;-66
2023/05/05 05:41:49;;;;;;;;;;;;;;;;;;5049605;28;20379;-66
2023/05/05 05:44:16;;;;;;;;;;;;;;;;;;5052493;28;19925;-66
2023/05/05 05:46:43;;;;;;;;;;;;;;;;;;5039434;28;19925;-66
2023/05/05 05:49:10;;;;;;;;;;;;;;;;;;5050459;28;19951;-67
2023/05/05 05:51:37;;;;;;;;;;;;;;;;;;5052780;28;19993;-66
2023/05/05 05:54:04;;;;;;;;;;;;;;;;;;5051221;28;19964;-66
2023/05/05 05:56:31;;;;;;;;;;;;;;;;;;5052224;28;19967;-67
2023/05/05 05:59:00;;;;;;;;;;;;;;;;;;5053923;28;19924;-66
2023/05/05 06:01:27;;;;;;;;;;;;;;;;;;5052018;28;19925;-67
2023/05/05 06:03:54;;;;;;;;;;;;;;;;;;5051826;28;20023;-67
2023/05/05 06:06:21;;;;;;;;;;;;;;;;;;5053341;28;19962;-67
2023/05/05 06:08:48;;;;;;;;;;;;;;;;;;5050743;28;20493;-67
2023/05/05 06:11:15;;;;;;;;;;;;;;;;;;5051854;28;20499;-67
2023/05/05 06:13:42;;;;;;;;;;;;;;;;;;5050795;28;19933;-67
2023/05/05 06:16:09;;;;;;;;;;;;;;;;;;5046310;28;20002;-66
2023/05/05 06:18:36;;;;;;;;;;;;;;;;;;5048614;28;20342;-68
2023/05/05 06:21:03;;;;;;;;;;;;;;;;;;5048045;28;19968;-67
2023/05/05 06:23:30;;;;;;;;;;;;;;;;;;5053244;28;20399;-67
2023/05/05 06:25:57;;;;;;;;;;;;;;;;;;5050203;28;19927;-67
2023/05/05 06:28:24;;;;;;;;;;;;;;;;;;5045343;28;19957;-67
2023/05/05 06:30:51;;;;;;;;;;;;;;;;;;5048004;28;19929;-67
2023/05/05 06:33:19;;;;;;;;;;;;;;;;;;5054595;28;20020;-68
2023/05/05 06:35:46;;;;;;;;;;;;;;;;;;5044205;28;19983;-67
2023/05/05 06:38:13;;;;;;;;;;;;;;;;;;5053626;28;19933;-67
2023/05/05 06:40:40;;;;;;;;;;;;;;;;;;5051620;28;19938;-67
2023/05/05 06:43:08;;;;;;;;;;;;;;;;;;5054950;28;19932;-67
2023/05/05 06:45:35;;;;;;;;;;;;;;;;;;5066764;28;19966;-67
2023/05/05 06:48:02;;;;;;;;;;;;;;;;;;5046207;28;19966;-67
2023/05/05 06:50:29;;;;;;;;;;;;;;;;;;5055117;28;19978;-66
2023/05/05 06:52:56;;;;;;;;;;;;;;;;;;5054039;28;19925;-66
2023/05/05 06:55:23;;;;;;;;;;;;;;;;;;5061150;28;19928;-67
2023/05/05 06:57:50;;;;;;;;;;;;;;;;;;5047756;28;19928;-66
2023/05/05 07:00:18;;;;;;;;;;;;;;;;;;5051432;28;19939;-66
2023/05/05 07:02:46;;;;;;;;;;;;;;;;;;5051513;28;19929;-66
2023/05/05 07:05:13;;;;;;;;;;;;;;;;;;5038759;28;19957;-66
2023/05/05 07:07:40;;;;;;;;;;;;;;;;;;5051784;28;19982;-66
2023/05/05 07:10:08;;;;;;;;;;;;;;;;;;5046640;28;20532;-65
2023/05/05 07:12:35;;;;;;;;;;;;;;;;;;5045555;28;19971;-65
2023/05/05 07:15:03;;;;;;;;;;;;;;;;;;5052740;28;19978;-64
2023/05/05 07:17:30;;;;;;;;;;;;;;;;;;5048256;28;19964;-66
2023/05/05 07:19:57;;;;;;;;;;;;;;;;;;5055483;28;19925;-66
2023/05/05 07:22:24;;;;;;;;;;;;;;;;;;5057313;28;20387;-66
2023/05/05 07:24:52;;;;;;;;;;;;;;;;;;5048299;28;20023;-67
2023/05/05 07:27:19;;;;;;;;;;;;;;;;;;5045299;28;19924;-66
2023/05/05 07:29:46;;;;;;;;;;;;;;;;;;5048821;28;19986;-67
2023/05/05 07:32:13;;;;;;;;;;;;;;;;;;5050081;28;20399;-66
2023/05/05 07:34:40;;;;;;;;;;;;;;;;;;5048042;28;19982;-66
2023/05/05 07:37:07;;;;;;;;;;;;;;;;;;5050101;28;19971;-66
2023/05/05 07:39:34;;;;;;;;;;;;;;;;;;5049094;28;19925;-65
2023/05/05 07:42:01;;;;;;;;;;;;;;;;;;5048500;28;19924;-67
2023/05/05 07:44:28;;;;;;;;;;;;;;;;;;5043314;28;20023;-65
2023/05/05 07:46:55;;;;;;;;;;;;;;;;;;5045869;28;19925;-67
2023/05/05 07:49:22;;;;;;;;;;;;;;;;;;5043373;28;20358;-67
2023/05/05 07:51:49;;;;;;;;;;;;;;;;;;5041384;28;19968;-66
2023/05/05 07:54:16;;;;;;;;;;;;;;;;;;5056195;28;19924;-66
2023/05/05 07:56:43;;;;;;;;;;;;;;;;;;5052244;28;19954;-67
2023/05/05 07:59:10;;;;;;;;;;;;;;;;;;5050612;28;19932;-66
2023/05/05 08:01:38;;;;;;;;;;;;;;;;;;5052084;28;19968;-65
2023/05/05 08:04:05;;;;;;;;;;;;;;;;;;5047492;28;20333;-65
2023/05/05 08:06:32;;;;;;;;;;;;;;;;;;5053575;28;21989;-66
2023/05/05 08:08:59;;;;;;;;;;;;;;;;;;5070006;28;19924;-66
2023/05/05 08:11:26;;;;;;;;;;;;;;;;;;5054687;28;19986;-66
2023/05/05 08:13:53;;;;;;;;;;;;;;;;;;5050396;28;20002;-65
2023/05/05 08:16:20;;;;;;;;;;;;;;;;;;5053268;28;19931;-67
2023/05/05 08:18:47;;;;;;;;;;;;;;;;;;5049518;28;19980;-66
2023/05/05 08:21:14;;;;;;;;;;;;;;;;;;5054578;28;19944;-68
2023/05/05 08:23:41;;;;;;;;;;;;;;;;;;5053045;28;19940;-67
2023/05/05 08:26:09;;;;;;;;;;;;;;;;;;5061170;28;20276;-68
2023/05/05 08:28:36;;;;;;;;;;;;;;;;;;5059312;28;19979;-69
2023/05/05 08:31:03;;;;;;;;;;;;;;;;;;5050316;28;19926;-68
2023/05/05 08:33:30;;;;;;;;;;;;;;;;;;5056728;28;19970;-68
2023/05/05 08:35:57;;;;;;;;;;;;;;;;;;5049293;28;20400;-68
2023/05/05 08:38:24;;;;;;;;;;;;;;;;;;5049219;28;19974;-68
2023/05/05 08:40:51;;;;;;;;;;;;;;;;;;5054550;28;20310;-68
2023/05/05 08:43:19;;;;;;;;;;;;;;;;;;5064131;28;19989;-68
2023/05/05 08:45:46;;;;;;;;;;;;;;;;;;5047453;28;19935;-68
2023/05/05 08:48:13;;;;;;;;;;;;;;;;;;5043106;28;20455;-67
2023/05/05 08:50:40;;;;;;;;;;;;;;;;;;5049776;28;19929;-68
2023/05/05 08:53:07;;;;;;;;;;;;;;;;;;5051394;28;19924;-68
2023/05/05 08:55:34;;;;;;;;;;;;;;;;;;5051704;28;19924;-68
2023/05/05 08:58:02;;;;;;;;;;;;;;;;;;5047010;28;19986;-68
2023/05/05 09:00:29;;;;;;;;;;;;;;;;;;5046429;28;19996;-68
2023/05/05 09:02:56;;;;;;;;;;;;;;;;;;5051110;28;19925;-68
2023/05/05 09:05:23;;;;;;;;;;;;;;;;;;5046858;28;19931;-67
2023/05/05 09:07:50;;;;;;;;;;;;;;;;;;5050618;28;19960;-68
2023/05/05 09:10:17;;;;;;;;;;;;;;;;;;5051247;28;19929;-68
2023/05/05 09:12:44;;;;;;;;;;;;;;;;;;5050947;28;19925;-67
2023/05/05 09:15:11;;;;;;;;;;;;;;;;;;5051209;28;19960;-68
2023/05/05 09:17:38;;;;;;;;;;;;;;;;;;5054382;28;19960;-68
2023/05/05 09:20:06;;;;;;;;;;;;;;;;;;5052031;28;19953;-68
2023/05/05 09:22:33;;;;;;;;;;;;;;;;;;5068638;28;19932;-68
2023/05/05 09:25:00;;;;;;;;;;;;;;;;;;5053782;28;19964;-69
2023/05/05 09:27:27;;;;;;;;;;;;;;;;;;5051511;28;19935;-68
2023/05/05 09:29:55;;;;;;;;;;;;;;;;;;5054108;28;19928;-67
2023/05/05 09:32:22;;;;;;;;;;;;;;;;;;5061435;28;19925;-68
2023/05/05 09:34:49;;;;;;;;;;;;;;;;;;5069575;28;19924;-68
2023/05/05 09:37:16;;;;;;;;;;;;;;;;;;5068414;28;19977;-68
2023/05/05 09:39:43;;;;;;;;;;;;;;;;;;5055483;28;20010;-68
2023/05/05 09:42:10;;;;;;;;;;;;;;;;;;5048401;28;20400;-67
2023/05/05 09:44:37;;;;;;;;;;;;;;;;;;5051298;28;20371;-68
2023/05/05 09:47:04;;;;;;;;;;;;;;;;;;5046206;28;19929;-69
2023/05/05 09:49:31;;;;;;;;;;;;;;;;;;5052634;28;19925;-69
2023/05/05 09:51:58;;;;;;;;;;;;;;;;;;5063626;28;20018;-69
2023/05/05 09:54:26;;;;;;;;;;;;;;;;;;5074875;28;19932;-69
2023/05/05 09:56:53;;;;;;;;;;;;;;;;;;5066465;28;19925;-69
2023/05/05 09:59:20;;;;;;;;;;;;;;;;;;5053890;28;19979;-69
2023/05/05 10:01:47;;;;;;;;;;;;;;;;;;5053123;28;19979;-68
2023/05/05 10:04:15;;;;;;;;;;;;;;;;;;5051555;28;19964;-69
2023/05/05 10:06:42;;;;;;;;;;;;;;;;;;5054009;28;19928;-69
2023/05/05 10:09:09;;;;;;;;;;;;;;;;;;5048934;28;20644;-69
2023/05/05 10:11:36;;;;;;;;;;;;;;;;;;5048904;28;19925;-68
2023/05/05 10:14:03;;;;;;;;;;;;;;;;;;5053683;28;19960;-69
2023/05/05 10:16:30;;;;;;;;;;;;;;;;;;5052914;28;19925;-68
2023/05/05 10:18:57;;;;;;;;;;;;;;;;;;5035290;28;19961;-68
2023/05/05 10:21:25;;;;;;;;;;;;;;;;;;5056526;28;19970;-68
2023/05/05 10:23:52;;;;;;;;;;;;;;;;;;5047534;28;19925;-68
2023/05/05 10:26:19;;;;;;;;;;;;;;;;;;5047298;28;20388;-68
2023/05/05 10:28:46;;;;;;;;;;;;;;;;;;5055791;28;19964;-68
2023/05/05 10:31:13;;;;;;;;;;;;;;;;;;5048738;28;19964;-67
2023/05/05 10:33:40;;;;;;;;;;;;;;;;;;5051921;28;19929;-66
2023/05/05 10:36:07;;;;;;;;;;;;;;;;;;5053378;28;20340;-69
2023/05/05 10:38:34;;;;;;;;;;;;;;;;;;5052959;28;19925;-69
2023/05/05 10:41:01;;;;;;;;;;;;;;;;;;5045373;28;19951;-69
2023/05/05 10:43:28;;;;;;;;;;;;;;;;;;5056390;28;19930;-69
2023/05/05 10:45:55;;;;;;;;;;;;;;;;;;5066152;28;19924;-69
2023/05/05 10:48:22;;;;;;;;;;;;;;;;;;5053997;28;19968;-70
2023/05/05 10:50:49;;;;;;;;;;;;;;;;;;5052365;28;19924;-69
2023/05/05 10:53:17;;;;;;;;;;;;;;;;;;5052633;28;19924;-70
2023/05/05 10:55:44;;;;;;;;;;;;;;;;;;5053647;28;19929;-71
2023/05/05 10:58:11;;;;;;;;;;;;;;;;;;5054922;28;20362;-70
2023/05/05 11:00:38;;;;;;;;;;;;;;;;;;5049846;28;19924;-69
2023/05/05 11:03:05;;;;;;;;;;;;;;;;;;5054530;28;19964;-68
2023/05/05 11:05:32;;;;;;;;;;;;;;;;;;5051661;28;19936;-68
2023/05/05 11:07:59;;;;;;;;;;;;;;;;;;5046706;28;19960;-68
2023/05/05 11:10:26;;;;;;;;;;;;;;;;;;5053730;28;19924;-68
2023/05/05 11:12:53;;;;;;;;;;;;;;;;;;5049326;28;20280;-69
2023/05/05 11:15:20;;;;;;;;;;;;;;;;;;5048756;28;19928;-69
2023/05/05 11:17:47;;;;;;;;;;;;;;;;;;5052889;28;19925;-68
2023/05/05 11:20:14;;;;;;;;;;;;;;;;;;5052919;28;20410;-68
2023/05/05 11:22:41;;;;;;;;;;;;;;;;;;5052999;28;19966;-68
2023/05/05 11:25:08;;;;;;;;;;;;;;;;;;5052965;28;19929;-68
2023/05/05 11:27:35;;;;;;;;;;;;;;;;;;5049960;28;20088;-68
2023/05/05 11:30:02;;;;;;;;;;;;;;;;;;5044770;28;19979;-68
2023/05/05 11:32:29;;;;;;;;;;;;;;;;;;5052588;28;20453;-68
2023/05/05 11:34:56;;;;;;;;;;;;;;;;;;5059972;28;19932;-69
2023/05/05 11:37:23;;;;;;;;;;;;;;;;;;5052559;28;19928;-68
2023/05/05 11:39:50;;;;;;;;;;;;;;;;;;5049708;28;19925;-68
2023/05/05 11:42:17;;;;;;;;;;;;;;;;;;5050470;28;19967;-68
2023/05/05 11:44:44;;;;;;;;;;;;;;;;;;5050492;28;19967;-68
2023/05/05 11:47:11;;;;;;;;;;;;;;;;;;5050901;28;20394;-70
2023/05/05 11:49:38;;;;;;;;;;;;;;;;;;5051776;28;19924;-74
2023/05/05 11:52:05;;;;;;;;;;;;;;;;;;5048469;28;20031;-74
2023/05/05 11:54:32;;;;;;;;;;;;;;;;;;5049136;28;19940;-74
2023/05/05 11:57:00;;;;;;;;;;;;;;;;;;5050294;28;19924;-71
2023/05/05 11:59:27;;;;;;;;;;;;;;;;;;5051711;28;19931;-70
2023/05/05 12:01:54;;;;;;;;;;;;;;;;;;5051069;28;20372;-71
2023/05/05 12:04:21;;;;;;;;;;;;;;;;;;5051146;28;19990;-71
2023/05/05 12:06:48;;;;;;;;;;;;;;;;;;5045424;28;19925;-70
2023/05/05 12:09:15;;;;;;;;;;;;;;;;;;5062395;28;20011;-71
2023/05/05 12:11:42;;;;;;;;;;;;;;;;;;5048019;28;19933;-69
2023/05/05 12:14:10;;;;;;;;;;;;;;;;;;5049203;28;19978;-68
2023/05/05 12:16:37;;;;;;;;;;;;;;;;;;5063712;28;20379;-69
2023/05/05 12:19:04;;;;;;;;;;;;;;;;;;5054899;28;19934;-69
2023/05/05 12:21:31;;;;;;;;;;;;;;;;;;5067992;28;19968;-69
2023/05/05 12:23:58;;;;;;;;;;;;;;;;;;5053725;28;19986;-69
2023/05/05 12:26:26;;;;;;;;;;;;;;;;;;5051165;28;20435;-69
2023/05/05 12:28:53;;;;;;;;;;;;;;;;;;5044910;28;20671;-69
2023/05/05 12:31:20;;;;;;;;;;;;;;;;;;5061171;28;19925;-70
2023/05/05 12:33:47;;;;;;;;;;;;;;;;;;5047211;28;19990;-69
2023/05/05 12:36:15;;;;;;;;;;;;;;;;;;5048783;28;19924;-69
2023/05/05 12:38:42;;;;;;;;;;;;;;;;;;5039845;28;19933;-69
2023/05/05 12:41:09;;;;;;;;;;;;;;;;;;5042517;28;19932;-70
2023/05/05 12:43:37;;;;;;;;;;;;;;;;;;5048217;28;19925;-69
2023/05/05 12:46:04;;;;;;;;;;;;;;;;;;5069534;28;19928;-69
2023/05/05 12:48:31;;;;;;;;;;;;;;;;;;5058556;28;20303;-68
2023/05/05 12:50:58;;;;;;;;;;;;;;;;;;5054196;28;19933;-67
2023/05/05 12:53:25;;;;;;;;;;;;;;;;;;5051768;28;19925;-68
2023/05/05 12:55:53;;;;;;;;;;;;;;;;;;5051752;28;20437;-68
2023/05/05 12:58:20;;;;;;;;;;;;;;;;;;5055486;28;19928;-69
2023/05/05 13:00:47;;;;;;;;;;;;;;;;;;5052892;28;19982;-69
2023/05/05 13:03:14;;;;;;;;;;;;;;;;;;5051164;28;19986;-69
2023/05/05 13:05:41;;;;;;;;;;;;;;;;;;5051406;28;19967;-69
2023/05/05 13:08:08;;;;;;;;;;;;;;;;;;5053286;28;19963;-68
2023/05/05 13:10:36;;;;;;;;;;;;;;;;;;5053836;28;19925;-69
2023/05/05 13:13:03;;;;;;;;;;;;;;;;;;5053923;28;20053;-69
2023/05/05 13:15:30;;;;;;;;;;;;;;;;;;5054438;28;19931;-69
2023/05/05 13:17:57;;;;;;;;;;;;;;;;;;5054635;28;19924;-69
2023/05/05 13:20:24;;;;;;;;;;;;;;;;;;5051268;28;20465;-69
2023/05/05 13:22:51;;;;;;;;;;;;;;;;;;5052207;28;20368;-68
2023/05/05 13:25:18;;;;;;;;;;;;;;;;;;5054237;28;19979;-70
2023/05/05 13:27:45;;;;;;;;;;;;;;;;;;5051915;28;20001;-70
2023/05/05 13:30:12;;;;;;;;;;;;;;;;;;5060136;28;20122;-70
2023/05/05 13:32:39;;;;;;;;;;;;;;;;;;5065541;28;19932;-70
2023/05/05 13:35:06;;;;;;;;;;;;;;;;;;5048120;28;19925;-70
2023/05/05 13:37:33;;;;;;;;;;;;;;;;;;5060753;28;20005;-70
2023/05/05 13:40:00;;;;;;;;;;;;;;;;;;5058562;28;20353;-70
2023/05/05 13:42:27;;;;;;;;;;;;;;;;;;5052662;28;19932;-70
2023/05/05 13:44:54;;;;;;;;;;;;;;;;;;5049039;28;20351;-72
2023/05/05 13:47:21;;;;;;;;;;;;;;;;;;5053527;28;19925;-74
2023/05/05 13:49:48;;;;;;;;;;;;;;;;;;5053965;28;19985;-70
2023/05/05 13:52:16;;;;;;;;;;;;;;;;;;5055081;28;20781;-71
2023/05/05 13:54:43;;;;;;;;;;;;;;;;;;5054779;28;19924;-69
2023/05/05 13:57:13;;;;;;;;;;;;;;;;;;5050507;28;20391;-70
2023/05/05 13:59:41;;;;;;;;;;;;;;;;;;5048561;28;19968;-71
2023/05/05 14:02:08;;;;;;;;;;;;;;;;;;5034714;28;20029;-69
2023/05/05 14:04:35;;;;;;;;;;;;;;;;;;5031102;28;19987;-70
2023/05/05 14:07:03;;;;;;;;;;;;;;;;;;5031852;28;19929;-70
2023/05/05 14:09:30;;;;;;;;;;;;;;;;;;5039634;28;20014;-71
2023/05/05 14:11:58;;;;;;;;;;;;;;;;;;5032849;28;20403;-70
2023/05/05 14:14:25;;;;;;;;;;;;;;;;;;5034528;28;19925;-69
2023/05/05 14:16:52;;;;;;;;;;;;;;;;;;5051685;28;20066;-70
2023/05/05 14:19:19;;;;;;;;;;;;;;;;;;5047040;28;20363;-69
2023/05/05 14:21:46;;;;;;;;;;;;;;;;;;5050724;28;19954;-69
2023/05/05 14:24:13;;;;;;;;;;;;;;;;;;5045402;28;19925;-69
2023/05/05 14:26:40;;;;;;;;;;;;;;;;;;5047980;28;20291;-69
2023/05/05 14:29:07;;;;;;;;;;;;;;;;;;5047189;28;19948;-70
2023/05/05 14:31:35;;;;;;;;;;;;;;;;;;5051330;28;19975;-68
2023/05/05 14:34:02;;;;;;;;;;;;;;;;;;5048426;28;19971;-69
2023/05/05 14:36:30;;;;;;;;;;;;;;;;;;5052934;28;20346;-70
2023/05/05 14:38:57;;;;;;;;;;;;;;;;;;5052201;28;20028;-69
2023/05/05 14:41:24;;;;;;;;;;;;;;;;;;5051029;28;19999;-68
2023/05/05 14:43:51;;;;;;;;;;;;;;;;;;5051658;28;19964;-70
2023/05/05 14:46:18;;;;;;;;;;;;;;;;;;5053367;28;20010;-67
2023/05/05 14:48:46;;;;;;;;;;;;;;;;;;5059260;28;19928;-69
2023/05/05 14:51:13;;;;;;;;;;;;;;;;;;5044400;28;19925;-71
2023/05/05 14:53:40;;;;;;;;;;;;;;;;;;5048418;28;21711;-70
2023/05/05 14:56:07;;;;;;;;;;;;;;;;;;5047017;28;19957;-70
2023/05/05 14:58:34;;;;;;;;;;;;;;;;;;5048088;28;19925;-69
2023/05/05 15:01:01;;;;;;;;;;;;;;;;;;5049394;28;20117;-68
2023/05/05 15:03:28;;;;;;;;;;;;;;;;;;5051491;28;20408;-70
2023/05/05 15:05:55;;;;;;;;;;;;;;;;;;5047068;28;19925;-69
2023/05/05 15:08:22;;;;;;;;;;;;;;;;;;5050429;28;20315;-69
2023/05/05 15:10:49;;;;;;;;;;;;;;;;;;5048208;28;20487;-70
2023/05/05 15:13:17;;;;;;;;;;;;;;;;;;5048404;28;19925;-69
2023/05/05 15:15:44;;;;;;;;;;;;;;;;;;5054626;28;19955;-70
2023/05/05 15:18:11;;;;;;;;;;;;;;;;;;5057701;28;19925;-69
2023/05/05 15:20:38;;;;;;;;;;;;;;;;;;5056701;28;19932;-69
2023/05/05 15:23:05;;;;;;;;;;;;;;;;;;5048357;28;19986;-69
2023/05/05 15:25:32;;;;;;;;;;;;;;;;;;5057569;28;19994;-70
2023/05/05 15:27:59;;;;;;;;;;;;;;;;;;5052998;28;19925;-70
2023/05/05 15:30:26;;;;;;;;;;;;;;;;;;5048353;28;20031;-70
2023/05/05 15:32:53;;;;;;;;;;;;;;;;;;5045273;28;19964;-70
2023/05/05 15:35:20;;;;;;;;;;;;;;;;;;5050504;28;19924;-69
2023/05/05 15:37:47;;;;;;;;;;;;;;;;;;5047490;28;19929;-69
2023/05/05 15:40:14;;;;;;;;;;;;;;;;;;5047939;28;19972;-69
2023/05/05 15:42:41;;;;;;;;;;;;;;;;;;5050857;28;20368;-70
2023/05/05 15:45:10;;;;;;;;;;;;;;;;;;5050376;28;19940;-70
2023/05/05 15:47:37;;;;;;;;;;;;;;;;;;5040420;28;20004;-72
2023/05/05 15:50:05;;;;;;;;;;;;;;;;;;5050490;28;20276;-70
2023/05/05 15:52:32;;;;;;;;;;;;;;;;;;5036354;28;20012;-66
2023/05/05 15:54:59;;;;;;;;;;;;;;;;;;5042486;28;20010;-67
2023/05/05 15:57:26;;;;;;;;;;;;;;;;;;5051065;28;19928;-68
2023/05/05 15:59:53;;;;;;;;;;;;;;;;;;5049973;28;20012;-67
2023/05/05 16:02:20;;;;;;;;;;;;;;;;;;5052506;28;20042;-67
2023/05/05 16:04:47;;;;;;;;;;;;;;;;;;5039778;28;20003;-67
2023/05/05 16:07:14;;;;;;;;;;;;;;;;;;5051027;28;19925;-68
2023/05/05 16:09:41;;;;;;;;;;;;;;;;;;5045109;28;19964;-67
2023/05/05 16:12:08;;;;;;;;;;;;;;;;;;5045573;28;19934;-65
2023/05/05 16:14:35;;;;;;;;;;;;;;;;;;5050276;28;20330;-67
2023/05/05 16:17:02;;;;;;;;;;;;;;;;;;5041605;28;20247;-68
2023/05/05 16:19:29;;;;;;;;;;;;;;;;;;5048681;28;19925;-68
2023/05/05 16:21:56;;;;;;;;;;;;;;;;;;5048198;28;20055;-68
2023/05/05 16:24:24;;;;;;;;;;;;;;;;;;5052530;28;19978;-66
2023/05/05 16:26:50;;;;;;;;;;;;;;;;;;5048929;28;19978;-67
2023/05/05 16:29:18;;;;;;;;;;;;;;;;;;5047316;28;19933;-66
2023/05/05 16:31:45;;;;;;;;;;;;;;;;;;5045551;28;19924;-65
2023/05/05 16:34:12;;;;;;;;;;;;;;;;;;5045949;28;20473;-66
2023/05/05 16:36:39;;;;;;;;;;;;;;;;;;5052823;28;19935;-67
2023/05/05 16:39:06;;;;;;;;;;;;;;;;;;5045050;28;19932;-67
2023/05/05 16:41:33;;;;;;;;;;;;;;;;;;5051059;28;19929;-66
2023/05/05 16:44:00;;;;;;;;;;;;;;;;;;5046055;28;19987;-66